createdAt,value
2018-05-11T00:06:11.586Z,19.4
2018-05-11T00:16:10.825Z,19.4
2018-05-11T00:26:10.058Z,19.4
2018-05-11T00:36:09.185Z,19.3
2018-05-11T00:46:08.457Z,19.3
2018-05-11T00:56:07.671Z,19.1
2018-05-11T01:06:06.898Z,19.1
2018-05-11T01:16:06.081Z,19.1
2018-05-11T01:26:05.324Z,19
2018-05-11T01:36:04.584Z,18.9
2018-05-11T01:46:03.761Z,18.9
2018-05-11T01:56:02.977Z,18.9
2018-05-11T02:06:02.195Z,18.9
2018-05-11T02:16:01.405Z,18.9
2018-05-11T02:26:00.702Z,18.9
2018-05-11T02:35:59.770Z,18.8
2018-05-11T02:45:58.993Z,19.1
2018-05-11T02:55:58.200Z,19.4
2018-05-11T03:05:57.735Z,19.6
2018-05-11T03:15:56.708Z,19.9
2018-05-11T03:25:56.128Z,20.1
2018-05-11T03:35:55.077Z,20.3
2018-05-11T03:45:54.368Z,20.4
2018-05-11T03:55:53.744Z,20.6
2018-05-11T04:05:52.714Z,20.6
2018-05-11T04:15:51.946Z,20.8
2018-05-11T04:25:51.157Z,20.9
2018-05-11T04:35:50.365Z,20.9
2018-05-11T04:45:49.658Z,21.1
2018-05-11T04:55:48.861Z,21.1
2018-05-11T05:05:48.027Z,21.1
2018-05-11T05:15:47.353Z,21.2
2018-05-11T05:25:46.455Z,21.3
2018-05-11T05:35:45.892Z,21.3
2018-05-11T05:45:44.942Z,21.3
2018-05-11T05:55:44.195Z,21.4
2018-05-11T06:05:43.437Z,21.4
2018-05-11T06:15:42.665Z,21.5
2018-05-11T06:25:41.765Z,21.6
2018-05-11T06:35:40.964Z,21.6
2018-05-11T06:45:40.197Z,21.7
2018-05-11T06:55:39.407Z,21.8
2018-05-11T07:05:38.646Z,21.9
2018-05-11T07:15:37.829Z,21.9
2018-05-11T07:25:37.485Z,21.9
2018-05-11T07:35:36.317Z,21.9
2018-05-11T07:45:35.544Z,22
2018-05-11T07:55:34.698Z,22.1
2018-05-11T08:05:33.928Z,22.2
2018-05-11T08:15:33.209Z,22.3
2018-05-11T08:25:32.391Z,22.3
2018-05-11T08:35:31.593Z,22.3
2018-05-11T08:45:30.864Z,22.4
2018-05-11T08:55:30.074Z,22.6
2018-05-11T09:05:29.351Z,22.8
2018-05-11T09:15:28.516Z,22.9
2018-05-11T09:25:27.750Z,23
2018-05-11T09:35:26.895Z,23.2
2018-05-11T09:45:26.095Z,23.3
2018-05-11T09:55:25.305Z,23.4
2018-05-11T10:05:24.644Z,23.5
2018-05-11T10:15:23.738Z,23.6
2018-05-11T10:25:23.028Z,23.6
2018-05-11T10:35:22.172Z,23.6
2018-05-11T10:45:21.403Z,23.8
2018-05-11T10:55:20.894Z,23.8
2018-05-11T11:05:19.863Z,23.8
2018-05-11T11:15:19.107Z,23.8
2018-05-11T11:25:18.308Z,23.8
2018-05-11T11:35:17.550Z,23.8
2018-05-11T11:45:16.727Z,23.8
2018-05-11T11:55:16.034Z,23.8
2018-05-11T12:05:15.205Z,23.8
2018-05-11T12:15:14.350Z,23.9
2018-05-11T12:25:13.570Z,23.8
2018-05-11T12:35:13.086Z,23.7
2018-05-11T12:45:11.999Z,23.6
2018-05-11T12:55:11.293Z,23.6
2018-05-11T13:05:10.804Z,23.6
2018-05-11T13:15:09.664Z,23.4
2018-05-11T13:25:08.865Z,23.3
2018-05-11T13:35:08.206Z,23.3
2018-05-11T13:45:07.425Z,23.2
2018-05-11T13:55:06.518Z,23.1
2018-05-11T14:05:05.797Z,23.1
2018-05-11T14:15:04.961Z,22.9
2018-05-11T14:25:04.455Z,22.9
2018-05-11T14:35:03.466Z,22.9
2018-05-11T14:45:02.974Z,22.9
2018-05-11T14:55:01.847Z,22.9
2018-05-11T15:05:01.048Z,22.9
2018-05-11T15:15:00.257Z,22.9
2018-05-11T15:24:59.598Z,22.8
2018-05-11T15:34:58.792Z,22.8
2018-05-11T15:44:57.924Z,22.8
2018-05-11T15:54:57.135Z,22.7
2018-05-11T16:04:56.421Z,22.7
2018-05-11T16:14:55.565Z,22.6
2018-05-11T16:24:55.111Z,22.6
2018-05-11T16:34:54.066Z,22.6
2018-05-11T16:44:53.292Z,22.6
2018-05-11T16:54:52.440Z,22.7
2018-05-11T17:04:51.836Z,22.6
2018-05-11T17:14:51.018Z,22.7
2018-05-11T17:24:50.177Z,22.7
2018-05-11T17:34:49.319Z,22.8
2018-05-11T17:44:48.598Z,22.8
2018-05-11T17:54:47.838Z,22.8
2018-05-11T18:04:46.975Z,22.9
2018-05-11T18:14:46.218Z,22.9
2018-05-11T18:24:45.466Z,22.9
2018-05-11T18:34:44.649Z,22.9
2018-05-11T18:44:43.858Z,22.9
2018-05-11T18:54:43.649Z,22.9
2018-05-11T19:04:42.369Z,22.9
2018-05-11T19:14:41.927Z,22.9
2018-05-11T19:24:40.747Z,22.9
2018-05-11T19:34:39.997Z,22.9
2018-05-11T19:44:39.181Z,22.9
2018-05-11T19:54:38.389Z,22.6
2018-05-11T20:04:37.689Z,22.2
2018-05-11T20:14:36.827Z,21.9
2018-05-11T20:24:36.116Z,21.6
2018-05-11T20:34:35.384Z,21.3
2018-05-11T20:44:34.575Z,21.1
2018-05-11T20:54:33.823Z,20.8
2018-05-11T21:04:32.955Z,20.6
2018-05-11T21:14:32.181Z,20.5
2018-05-11T21:24:31.353Z,20.4
2018-05-11T21:34:30.567Z,20.3
2018-05-11T21:44:29.796Z,20.1
2018-05-11T21:54:29.125Z,20.1
2018-05-11T22:04:28.222Z,19.9
2018-05-11T22:14:27.727Z,19.9
2018-05-11T22:24:26.704Z,19.8
2018-05-11T22:34:26.187Z,19.7
2018-05-11T22:44:25.091Z,19.6
2018-05-11T22:54:24.378Z,19.6
2018-05-11T23:04:23.587Z,19.5
2018-05-11T23:14:22.740Z,19.4
2018-05-11T23:24:21.976Z,19.4
2018-05-11T23:34:21.204Z,19.3
2018-05-11T23:44:20.467Z,19.3
2018-05-11T23:54:19.634Z,19.2
